Time;durP1;ratioP1;P1;durP2;ratioP2;P2;SDS_P1;SDS_P2;PMS_P1;PMS_P2;Temp;Humidity;BMP_temperature;BMP_pressure;BME280_temperature;BME280_humidity;BME280_pressure;Samples;Min_cycle;Max_cycle;Signal;HPM_P1;HPM_P2
2023/12/16 00:00:35;;;;;;;17.67;5.10;;;7.70;99.90;;;;;;5089911;28;20165;-57
2023/12/16 00:03:00;;;;;;;13.23;5.57;;;7.70;99.90;;;;;;5089963;28;20189;-48
2023/12/16 00:05:26;;;;;;;13.65;4.85;;;7.60;99.90;;;;;;5090237;28;20242;-49
2023/12/16 00:07:51;;;;;;;10.60;4.60;;;7.60;99.90;;;;;;5073519;28;20173;-48
2023/12/16 00:10:17;;;;;;;12.95;5.18;;;7.60;99.90;;;;;;5091640;28;20176;-48
2023/12/16 00:12:42;;;;;;;17.42;6.13;;;7.60;99.90;;;;;;5099118;28;20247;-47
2023/12/16 00:15:10;;;;;;;11.73;4.72;;;7.60;99.90;;;;;;5112406;28;20227;-48
2023/12/16 00:17:36;;;;;;;15.02;5.68;;;7.70;99.90;;;;;;5112093;28;20251;-48
2023/12/16 00:20:01;;;;;;;11.93;5.07;;;7.70;99.90;;;;;;5111953;28;20204;-47
2023/12/16 00:22:27;;;;;;;14.07;4.90;;;7.60;99.90;;;;;;5111822;28;20165;-47
2023/12/16 00:24:52;;;;;;;10.45;4.90;;;7.60;99.90;;;;;;5111826;28;20171;-48
2023/12/16 00:27:18;;;;;;;18.48;4.43;;;7.60;99.90;;;;;;5111958;28;20164;-47
2023/12/16 00:29:44;;;;;;;14.57;5.10;;;7.60;99.90;;;;;;5111973;28;20647;-47
2023/12/16 00:32:09;;;;;;;14.80;4.93;;;7.60;99.90;;;;;;5112144;28;20255;-47
2023/12/16 00:34:35;;;;;;;14.02;5.50;;;7.70;99.90;;;;;;5111656;28;20204;-48
2023/12/16 00:37:05;;;;;;;14.32;4.47;;;7.60;99.90;;;;;;5111965;28;20180;-48
2023/12/16 00:39:31;;;;;;;11.70;5.25;;;7.60;99.90;;;;;;5111601;28;20232;-51
2023/12/16 00:41:57;;;;;;;10.65;5.05;;;7.60;99.90;;;;;;5110666;28;20410;-48
2023/12/16 00:44:22;;;;;;;13.60;4.68;;;7.60;99.90;;;;;;5091244;28;20208;-50
2023/12/16 00:46:48;;;;;;;11.52;4.57;;;7.60;99.90;;;;;;5091316;28;20258;-50
2023/12/16 00:49:13;;;;;;;15.45;4.55;;;7.60;99.90;;;;;;5091202;28;20218;-47
2023/12/16 00:51:39;;;;;;;12.57;5.10;;;7.60;99.90;;;;;;5091636;28;20215;-47
2023/12/16 00:54:04;;;;;;;12.27;4.85;;;7.60;99.90;;;;;;5091161;28;20572;-48
2023/12/16 00:56:30;;;;;;;12.05;4.53;;;7.60;99.90;;;;;;5091106;28;20554;-47
2023/12/16 00:58:56;;;;;;;11.13;4.30;;;7.60;99.90;;;;;;5090637;28;20161;-47
2023/12/16 01:01:22;;;;;;;18.17;5.28;;;7.60;99.90;;;;;;5091385;28;20222;-48
2023/12/16 01:03:48;;;;;;;10.88;4.68;;;7.60;99.90;;;;;;5090683;28;20153;-47
2023/12/16 01:06:14;;;;;;;13.70;4.32;;;7.60;99.90;;;;;;5091056;28;20686;-47
2023/12/16 01:08:39;;;;;;;11.70;4.07;;;7.60;99.90;;;;;;5091761;28;20204;-48
2023/12/16 01:11:05;;;;;;;11.65;5.03;;;7.60;99.90;;;;;;5094877;28;20495;-47
2023/12/16 01:13:31;;;;;;;14.60;3.97;;;7.60;99.90;;;;;;5095072;28;20181;-46
2023/12/16 01:15:56;;;;;;;8.52;4.05;;;7.60;99.90;;;;;;5094750;28;20292;-46
2023/12/16 01:18:23;;;;;;;13.27;4.82;;;7.60;99.90;;;;;;5094766;28;20169;-47
2023/12/16 01:20:50;;;;;;;13.48;5.13;;;7.60;99.90;;;;;;5094949;28;20178;-46
2023/12/16 01:23:15;;;;;;;10.93;5.28;;;7.60;99.90;;;;;;5094905;28;20199;-47
2023/12/16 01:25:41;;;;;;;14.63;5.13;;;7.60;99.90;;;;;;5095042;28;20169;-47
2023/12/16 01:28:06;;;;;;;12.70;4.75;;;7.60;99.90;;;;;;5094601;28;20169;-47
2023/12/16 01:30:32;;;;;;;18.00;4.32;;;7.60;99.90;;;;;;5094432;28;20204;-47
2023/12/16 01:32:58;;;;;;;14.45;4.40;;;7.60;99.90;;;;;;5094764;28;20180;-47
2023/12/16 01:35:23;;;;;;;16.92;5.43;;;7.60;99.90;;;;;;5094331;28;20750;-49
2023/12/16 01:37:49;;;;;;;12.80;5.07;;;7.60;99.90;;;;;;5094441;28;20169;-47
2023/12/16 01:40:14;;;;;;;10.45;4.38;;;7.60;99.90;;;;;;5094318;28;20165;-47
2023/12/16 01:42:40;;;;;;;18.98;5.32;;;7.60;99.90;;;;;;5095032;28;20218;-51
2023/12/16 01:45:06;;;;;;;10.57;3.63;;;7.60;99.90;;;;;;5094263;28;20518;-47
2023/12/16 01:47:32;;;;;;;14.75;4.40;;;7.60;99.90;;;;;;5094182;28;20185;-50
2023/12/16 01:49:58;;;;;;;14.55;4.25;;;7.60;99.90;;;;;;5094191;28;20157;-49
2023/12/16 01:52:24;;;;;;;19.33;4.40;;;7.60;99.90;;;;;;5110978;28;20216;-47
2023/12/16 01:54:50;;;;;;;10.50;4.10;;;7.60;99.90;;;;;;5114375;28;20192;-53
2023/12/16 01:57:16;;;;;;;10.77;4.25;;;7.60;99.90;;;;;;5114471;28;20161;-53
2023/12/16 01:59:42;;;;;;;15.45;4.10;;;7.60;99.90;;;;;;5114363;28;20524;-50
2023/12/16 02:02:09;;;;;;;10.77;4.50;;;7.60;99.90;;;;;;5112998;28;20181;-53
2023/12/16 02:04:34;;;;;;;14.52;4.90;;;7.60;99.90;;;;;;5114290;28;20230;-53
2023/12/16 02:07:00;;;;;;;15.57;5.20;;;7.60;99.90;;;;;;5114185;28;20201;-53
2023/12/16 02:09:26;;;;;;;12.07;5.07;;;7.60;99.90;;;;;;5114208;28;20235;-53
2023/12/16 02:11:52;;;;;;;20.95;4.70;;;7.60;99.90;;;;;;5114373;28;20624;-54
2023/12/16 02:14:18;;;;;;;12.68;4.38;;;7.60;99.90;;;;;;5114076;28;20175;-53
2023/12/16 02:16:44;;;;;;;13.52;4.55;;;7.60;99.90;;;;;;5114191;28;20205;-53
2023/12/16 02:19:26;;;;;;;11.80;4.75;;;7.60;99.90;;;;;;5114519;28;20187;-53
2023/12/16 02:21:52;;;;;;;13.73;4.03;;;7.60;99.90;;;;;;5113043;28;20168;-52
2023/12/16 02:24:19;;;;;;;12.90;4.20;;;7.60;99.90;;;;;;5113886;28;20221;-52
2023/12/16 02:26:45;;;;;;;10.90;4.38;;;7.60;99.90;;;;;;5096817;28;20169;-53
2023/12/16 02:29:10;;;;;;;10.02;3.95;;;7.60;99.90;;;;;;5093877;28;20199;-53
2023/12/16 02:31:36;;;;;;;7.22;3.40;;;7.60;99.90;;;;;;5093332;28;20161;-53
2023/12/16 02:34:01;;;;;;;10.43;4.32;;;7.60;99.90;;;;;;5108999;28;20177;-54
2023/12/16 02:36:27;;;;;;;15.20;4.65;;;7.60;99.90;;;;;;5093188;28;20291;-53
2023/12/16 02:38:52;;;;;;;13.15;4.18;;;7.60;99.90;;;;;;5093246;28;20188;-53
2023/12/16 02:41:18;;;;;;;12.32;4.38;;;7.60;99.90;;;;;;5093131;28;20499;-54
2023/12/16 02:43:43;;;;;;;12.43;4.10;;;7.60;99.90;;;;;;5093180;28;20165;-53
2023/12/16 02:46:09;;;;;;;17.08;3.97;;;7.60;99.90;;;;;;5093449;28;20172;-53
2023/12/16 02:48:35;;;;;;;16.73;4.32;;;7.60;99.90;;;;;;5092976;28;20165;-54
2023/12/16 02:51:00;;;;;;;9.50;3.58;;;7.60;99.90;;;;;;5092933;28;20165;-54
2023/12/16 02:53:27;;;;;;;11.02;3.90;;;7.60;99.90;;;;;;5092760;28;20209;-53
2023/12/16 02:55:52;;;;;;;13.60;4.80;;;7.60;99.90;;;;;;5102781;28;20245;-53
2023/12/16 02:58:18;;;;;;;13.25;3.65;;;7.60;99.90;;;;;;5112387;28;20252;-54
2023/12/16 03:00:44;;;;;;;12.43;3.95;;;7.60;99.90;;;;;;5113206;28;20176;-53
2023/12/16 03:03:10;;;;;;;10.05;3.70;;;7.60;99.90;;;;;;5113832;28;20628;-54
2023/12/16 03:05:36;;;;;;;10.70;3.63;;;7.60;99.90;;;;;;5113311;28;20165;-55
2023/12/16 03:08:01;;;;;;;8.73;3.55;;;7.60;99.90;;;;;;5113037;28;20241;-54
2023/12/16 03:10:27;;;;;;;13.15;3.70;;;7.60;99.90;;;;;;5112940;28;20196;-54
2023/12/16 03:12:52;;;;;;;12.38;3.47;;;7.60;99.90;;;;;;5112993;28;20161;-54
2023/12/16 03:15:18;;;;;;;10.23;3.20;;;7.60;99.90;;;;;;5112821;28;20261;-55
2023/12/16 03:17:43;;;;;;;15.25;4.40;;;7.60;99.90;;;;;;5112873;28;20175;-54
2023/12/16 03:20:10;;;;;;;13.65;3.50;;;7.60;99.90;;;;;;5113218;28;20161;-53
2023/12/16 03:22:36;;;;;;;14.75;4.05;;;7.60;99.90;;;;;;5112700;28;20636;-53
2023/12/16 03:25:01;;;;;;;12.10;4.60;;;7.60;99.90;;;;;;5109828;28;20176;-53
2023/12/16 03:27:27;;;;;;;10.38;4.13;;;7.50;99.90;;;;;;5092587;28;20170;-51
2023/12/16 03:29:52;;;;;;;17.58;4.35;;;7.50;99.90;;;;;;5092588;28;20542;-53
2023/12/16 03:32:18;;;;;;;13.20;4.13;;;7.50;99.90;;;;;;5092340;28;20654;-53
2023/12/16 03:34:43;;;;;;;13.65;3.95;;;7.50;99.90;;;;;;5092034;28;20628;-53
2023/12/16 03:37:10;;;;;;;16.05;4.07;;;7.50;99.90;;;;;;5092637;28;20574;-54
2023/12/16 03:39:35;;;;;;;10.88;3.63;;;7.50;99.90;;;;;;5092079;28;20165;-54
2023/12/16 03:42:01;;;;;;;7.45;3.55;;;7.50;99.90;;;;;;5092270;28;20230;-55
2023/12/16 03:44:27;;;;;;;11.60;3.83;;;7.50;99.90;;;;;;5092345;28;20200;-55
2023/12/16 03:46:52;;;;;;;12.23;3.20;;;7.50;99.90;;;;;;5092052;28;20521;-55
2023/12/16 03:49:18;;;;;;;13.93;4.28;;;7.50;99.90;;;;;;5091946;28;20176;-50
2023/12/16 03:51:43;;;;;;;17.10;4.15;;;7.50;99.90;;;;;;5091946;28;20225;-54
2023/12/16 03:54:09;;;;;;;11.38;4.05;;;7.50;99.90;;;;;;5092409;28;20617;-53
2023/12/16 03:56:35;;;;;;;13.68;3.90;;;7.50;99.90;;;;;;5092092;28;20212;-54
2023/12/16 03:59:00;;;;;;;16.38;3.85;;;7.50;99.90;;;;;;5091815;28;20199;-52
2023/12/16 04:01:26;;;;;;;13.75;3.95;;;7.50;99.90;;;;;;5091759;28;20172;-53
2023/12/16 04:03:52;;;;;;;15.13;3.90;;;7.50;99.90;;;;;;5091728;28;20188;-54
2023/12/16 04:06:17;;;;;;;16.95;4.05;;;7.50;99.90;;;;;;5091692;28;20169;-54
2023/12/16 04:08:43;;;;;;;16.40;4.50;;;7.50;99.90;;;;;;5091738;28;20169;-54
2023/12/16 04:11:09;;;;;;;13.70;4.03;;;7.50;99.90;;;;;;5092300;28;20179;-52
2023/12/16 04:13:34;;;;;;;9.98;4.07;;;7.50;99.90;;;;;;5091583;28;20161;-53
2023/12/16 04:16:00;;;;;;;8.68;3.60;;;7.60;99.90;;;;;;5091477;28;20207;-53
2023/12/16 04:18:27;;;;;;;11.90;4.07;;;7.60;99.90;;;;;;5091522;28;20153;-52
2023/12/16 04:20:53;;;;;;;12.65;4.63;;;7.60;99.90;;;;;;5091801;28;20169;-53
2023/12/16 04:23:18;;;;;;;14.43;4.90;;;7.60;99.90;;;;;;5091510;28;20171;-54
2023/12/16 04:25:44;;;;;;;14.43;4.80;;;7.60;99.90;;;;;;5101420;28;20173;-53
2023/12/16 04:28:09;;;;;;;18.02;4.70;;;7.60;99.90;;;;;;5112015;28;20260;-52
2023/12/16 04:30:35;;;;;;;11.90;3.97;;;7.60;99.90;;;;;;5111785;28;20590;-53
2023/12/16 04:33:00;;;;;;;11.43;4.35;;;7.60;99.90;;;;;;5111841;28;21022;-50
2023/12/16 04:35:26;;;;;;;14.80;3.97;;;7.60;99.90;;;;;;5111581;28;20683;-52
2023/12/16 04:37:51;;;;;;;12.45;3.40;;;7.60;99.90;;;;;;5111362;28;20169;-54
2023/12/16 04:40:17;;;;;;;13.90;3.50;;;7.60;99.90;;;;;;5111640;28;20863;-51
2023/12/16 04:42:42;;;;;;;14.65;4.15;;;7.60;99.90;;;;;;5111651;28;20533;-54
2023/12/16 04:45:09;;;;;;;12.38;3.90;;;7.60;99.90;;;;;;5114834;28;20624;-52
2023/12/16 04:47:37;;;;;;;7.55;3.63;;;7.60;99.90;;;;;;5116040;28;20172;-53
2023/12/16 04:50:04;;;;;;;10.52;3.60;;;7.60;99.90;;;;;;5115958;28;20184;-54
2023/12/16 04:52:29;;;;;;;12.07;3.83;;;7.60;99.90;;;;;;5115482;28;20218;-54
2023/12/16 04:54:55;;;;;;;20.63;5.47;;;7.60;99.90;;;;;;5111687;28;20201;-53
2023/12/16 04:57:20;;;;;;;12.48;4.65;;;7.60;99.90;;;;;;5095167;28;20165;-49
2023/12/16 04:59:46;;;;;;;22.92;5.30;;;7.60;99.90;;;;;;5095465;28;20525;-47
2023/12/16 05:02:11;;;;;;;13.68;5.18;;;7.60;99.90;;;;;;5095336;28;20688;-47
2023/12/16 05:04:37;;;;;;;17.30;5.50;;;7.60;99.90;;;;;;5110498;28;20173;-47
2023/12/16 05:07:03;;;;;;;23.63;5.32;;;7.60;99.90;;;;;;5115413;28;20222;-47
2023/12/16 05:09:28;;;;;;;15.88;5.30;;;7.60;99.90;;;;;;5115428;28;20165;-46
2023/12/16 05:11:54;;;;;;;19.70;4.97;;;7.70;99.90;;;;;;5115583;28;20560;-47
2023/12/16 05:14:19;;;;;;;18.55;5.30;;;7.60;99.90;;;;;;5115335;28;20184;-49
2023/12/16 05:16:45;;;;;;;13.80;5.78;;;7.60;99.90;;;;;;5115176;28;20258;-48
2023/12/16 05:19:10;;;;;;;20.15;6.10;;;7.60;99.90;;;;;;5115603;28;20217;-47
2023/12/16 05:21:36;;;;;;;13.23;5.35;;;7.70;99.90;;;;;;5097275;28;20211;-47
2023/12/16 05:24:02;;;;;;;14.75;5.78;;;7.70;99.90;;;;;;5115079;28;20529;-47
2023/12/16 05:26:27;;;;;;;20.88;7.50;;;7.70;99.90;;;;;;5109659;28;20183;-47
2023/12/16 05:28:53;;;;;;;19.60;5.47;;;7.70;99.90;;;;;;5100857;28;20171;-46
2023/12/16 05:31:18;;;;;;;22.45;6.65;;;7.70;99.90;;;;;;5090402;28;20511;-48
2023/12/16 05:33:44;;;;;;;18.80;5.75;;;7.70;99.90;;;;;;5094454;28;20222;-47
2023/12/16 05:36:10;;;;;;;20.20;5.78;;;7.70;99.90;;;;;;5094668;28;20201;-47
2023/12/16 05:38:37;;;;;;;20.75;6.78;;;7.70;99.90;;;;;;5094405;28;20218;-48
2023/12/16 05:41:02;;;;;;;15.90;5.53;;;7.70;99.90;;;;;;5094297;28;20633;-47
2023/12/16 05:43:28;;;;;;;23.65;6.95;;;7.70;99.90;;;;;;5094282;28;20253;-47
2023/12/16 05:45:53;;;;;;;17.92;5.70;;;7.70;99.90;;;;;;5094201;28;20169;-47
2023/12/16 05:48:19;;;;;;;18.73;5.53;;;7.70;99.90;;;;;;5094169;28;20165;-49
2023/12/16 05:50:45;;;;;;;20.48;5.32;;;7.70;99.90;;;;;;5094094;28;20218;-48
2023/12/16 05:53:10;;;;;;;19.50;6.47;;;7.70;99.90;;;;;;5094365;28;20221;-54
2023/12/16 05:55:36;;;;;;;16.52;4.75;;;7.70;99.90;;;;;;5104212;28;20238;-53
2023/12/16 05:58:02;;;;;;;17.38;5.38;;;7.70;99.90;;;;;;5098498;28;20817;-53
2023/12/16 06:00:27;;;;;;;18.27;5.40;;;7.70;99.90;;;;;;5093394;28;20161;-53
2023/12/16 06:02:53;;;;;;;13.25;4.90;;;7.70;99.90;;;;;;5093725;28;20188;-52
2023/12/16 06:05:18;;;;;;;20.52;4.82;;;7.60;99.90;;;;;;5093402;28;20574;-53
2023/12/16 06:07:44;;;;;;;17.40;4.65;;;7.70;99.90;;;;;;5093107;28;20165;-54
2023/12/16 06:10:11;;;;;;;13.32;4.50;;;7.60;99.90;;;;;;5093816;28;20162;-54
2023/12/16 06:12:37;;;;;;;11.55;4.03;;;7.60;99.90;;;;;;5094012;28;20526;-54
2023/12/16 06:15:03;;;;;;;7.53;3.72;;;7.60;99.90;;;;;;5093194;28;20310;-54
2023/12/16 06:17:28;;;;;;;13.48;4.07;;;7.60;99.90;;;;;;5093109;28;20184;-54
2023/12/16 06:19:54;;;;;;;16.33;4.30;;;7.60;99.90;;;;;;5093381;28;20162;-53
2023/12/16 06:22:19;;;;;;;11.20;4.15;;;7.60;99.90;;;;;;5092922;28;20862;-54
2023/12/16 06:24:45;;;;;;;21.38;4.88;;;7.60;99.90;;;;;;5093584;28;20621;-54
2023/12/16 06:27:10;;;;;;;11.23;4.47;;;7.60;99.90;;;;;;5093355;28;20248;-53
2023/12/16 06:29:38;;;;;;;14.90;4.18;;;7.60;99.90;;;;;;5093302;28;20522;-53
2023/12/16 06:32:04;;;;;;;22.67;4.13;;;7.60;99.90;;;;;;5093143;28;20581;-53
2023/12/16 06:34:30;;;;;;;16.08;4.22;;;7.60;99.90;;;;;;5108507;28;20259;-53
2023/12/16 06:36:55;;;;;;;23.77;5.10;;;7.70;99.90;;;;;;5113244;28;20302;-54
2023/12/16 06:39:21;;;;;;;15.70;4.47;;;7.60;99.90;;;;;;5113093;28;20161;-52
2023/12/16 06:41:46;;;;;;;19.13;4.68;;;7.70;99.90;;;;;;5113181;28;20531;-54
2023/12/16 06:44:12;;;;;;;13.98;4.35;;;7.60;99.90;;;;;;5113051;28;20172;-54
2023/12/16 06:46:37;;;;;;;14.73;4.43;;;7.70;99.90;;;;;;5113391;28;20164;-54
2023/12/16 06:49:03;;;;;;;16.45;4.50;;;7.70;99.90;;;;;;5112970;28;20634;-54
2023/12/16 06:51:28;;;;;;;15.88;4.30;;;7.70;99.90;;;;;;5112631;28;20157;-54
2023/12/16 06:53:54;;;;;;;11.65;4.50;;;7.70;99.90;;;;;;5112907;28;20173;-54
2023/12/16 06:56:20;;;;;;;13.00;4.45;;;7.70;99.90;;;;;;5095177;28;20208;-48
2023/12/16 06:58:47;;;;;;;13.77;3.53;;;7.70;99.90;;;;;;5092569;28;20197;-52
2023/12/16 07:01:13;;;;;;;17.95;4.13;;;7.70;99.90;;;;;;5092320;28;20157;-53
2023/12/16 07:03:38;;;;;;;8.90;3.42;;;7.60;99.90;;;;;;5092373;28;20179;-53
2023/12/16 07:06:05;;;;;;;11.10;4.05;;;7.60;99.90;;;;;;5092270;28;20166;-53
2023/12/16 07:08:31;;;;;;;10.35;3.50;;;7.60;99.90;;;;;;5091992;28;20172;-53
2023/12/16 07:10:57;;;;;;;20.55;4.85;;;7.60;99.90;;;;;;5092412;28;20169;-54
2023/12/16 07:13:22;;;;;;;15.23;4.18;;;7.60;99.90;;;;;;5092062;28;20165;-51
2023/12/16 07:15:48;;;;;;;8.60;3.72;;;7.70;99.90;;;;;;5091994;28;20216;-51
2023/12/16 07:18:13;;;;;;;13.57;3.55;;;7.60;99.90;;;;;;5092002;28;20161;-53
2023/12/16 07:20:39;;;;;;;12.40;3.00;;;7.60;99.90;;;;;;5092047;28;20169;-54
2023/12/16 07:23:04;;;;;;;11.98;4.13;;;7.60;99.90;;;;;;5091735;28;20282;-54
2023/12/16 07:25:31;;;;;;;7.88;3.42;;;7.60;99.90;;;;;;5104215;28;20175;-53
2023/12/16 07:27:57;;;;;;;11.50;3.63;;;7.60;99.90;;;;;;5111876;28;20658;-50
2023/12/16 07:30:22;;;;;;;14.00;4.03;;;7.50;99.90;;;;;;5109360;28;20255;-59
2023/12/16 07:32:48;;;;;;;13.23;4.13;;;7.50;99.90;;;;;;5110494;28;20194;-51
2023/12/16 07:35:15;;;;;;;17.15;3.72;;;7.50;99.90;;;;;;5110258;28;20200;-59
2023/12/16 07:37:41;;;;;;;16.75;4.20;;;7.40;99.90;;;;;;5110738;28;20600;-56
2023/12/16 07:40:08;;;;;;;13.23;3.90;;;7.40;99.90;;;;;;5110951;28;20251;-55
2023/12/16 07:42:35;;;;;;;13.63;5.50;;;7.40;99.90;;;;;;5110502;28;20221;-55
2023/12/16 07:45:01;;;;;;;11.80;4.43;;;7.40;99.90;;;;;;5109926;28;20188;-53
2023/12/16 07:47:26;;;;;;;12.70;4.85;;;7.40;99.90;;;;;;5110198;28;20203;-54
2023/12/16 07:49:52;;;;;;;19.65;4.90;;;7.40;99.90;;;;;;5110084;28;20169;-54
2023/12/16 07:52:19;;;;;;;9.95;3.90;;;7.30;99.90;;;;;;5109798;28;20213;-53
2023/12/16 07:54:44;;;;;;;11.40;4.32;;;7.30;99.90;;;;;;5104437;28;20211;-55
2023/12/16 07:57:11;;;;;;;19.33;5.50;;;7.30;99.90;;;;;;5090067;28;20288;-55
2023/12/16 07:59:39;;;;;;;25.52;7.80;;;7.30;99.90;;;;;;5090227;28;20168;-54
2023/12/16 08:02:08;;;;;;;13.65;4.15;;;7.30;99.90;;;;;;5090279;28;20215;-53
2023/12/16 08:04:33;;;;;;;9.65;4.10;;;7.30;99.90;;;;;;5090007;28;20157;-56
2023/12/16 08:06:59;;;;;;;11.90;3.38;;;7.30;99.90;;;;;;5089692;28;20170;-56
2023/12/16 08:09:24;;;;;;;13.52;3.25;;;7.30;99.90;;;;;;5089596;28;20180;-56
2023/12/16 08:11:50;;;;;;;20.13;3.85;;;7.30;99.90;;;;;;5089586;28;20165;-55
2023/12/16 08:14:15;;;;;;;16.50;4.03;;;7.30;99.90;;;;;;5089260;28;20230;-54
2023/12/16 08:16:41;;;;;;;20.30;3.10;;;7.30;99.90;;;;;;5089663;28;20300;-51
2023/12/16 08:19:07;;;;;;;15.25;4.05;;;7.30;99.90;;;;;;5089265;28;20166;-54
2023/12/16 08:21:32;;;;;;;13.50;3.65;;;7.40;99.90;;;;;;5089686;28;20567;-56
2023/12/16 08:23:58;;;;;;;19.52;3.88;;;7.30;99.90;;;;;;5089940;28;20180;-54
2023/12/16 08:26:24;;;;;;;19.08;4.85;;;7.40;99.90;;;;;;5089755;28;20161;-54
2023/12/16 08:28:50;;;;;;;12.80;3.42;;;7.40;99.90;;;;;;5089367;28;20195;-55
2023/12/16 08:31:16;;;;;;;12.60;3.80;;;7.40;99.90;;;;;;5089564;28;20752;-56
2023/12/16 08:33:41;;;;;;;16.98;3.33;;;7.40;99.90;;;;;;5102286;28;20172;-53
2023/12/16 08:36:07;;;;;;;15.18;3.60;;;7.50;99.90;;;;;;5109807;28;20612;-56
2023/12/16 08:38:35;;;;;;;8.75;3.30;;;7.40;99.90;;;;;;5109930;28;20254;-55
2023/12/16 08:41:06;;;;;;;13.18;3.45;;;7.40;99.90;;;;;;5109676;28;20183;-55
2023/12/16 08:43:32;;;;;;;12.45;4.00;;;7.50;99.90;;;;;;5109773;28;20168;-56
2023/12/16 08:45:57;;;;;;;8.18;3.10;;;7.60;99.90;;;;;;5109729;28;20546;-55
2023/12/16 08:48:23;;;;;;;10.02;3.13;;;7.70;99.90;;;;;;5109907;28;20531;-56
2023/12/16 08:50:48;;;;;;;14.02;3.50;;;7.70;99.90;;;;;;5109708;28;20534;-55
2023/12/16 08:53:14;;;;;;;12.63;3.42;;;7.80;99.90;;;;;;5109504;28;20212;-55
2023/12/16 08:55:42;;;;;;;7.93;2.83;;;7.90;99.90;;;;;;5110059;28;20691;-56
2023/12/16 08:58:08;;;;;;;14.70;3.80;;;7.90;99.90;;;;;;5091691;28;20173;-56
2023/12/16 09:00:34;;;;;;;12.10;3.58;;;8.00;99.90;;;;;;5109574;28;20169;-55
2023/12/16 09:02:59;;;;;;;13.57;3.35;;;8.00;99.90;;;;;;5109135;28;20165;-54
2023/12/16 09:05:27;;;;;;;13.75;4.30;;;8.00;99.90;;;;;;5109120;28;20215;-55
2023/12/16 09:07:53;;;;;;;18.15;3.72;;;8.10;99.90;;;;;;5109431;28;20192;-55
2023/12/16 09:10:18;;;;;;;10.77;3.75;;;8.10;99.90;;;;;;5109577;28;20231;-56
2023/12/16 09:12:44;;;;;;;8.77;3.33;;;8.20;99.90;;;;;;5108733;28;20513;-56
2023/12/16 09:15:10;;;;;;;16.85;3.53;;;8.20;99.90;;;;;;5109879;28;20283;-57
2023/12/16 09:17:35;;;;;;;19.08;4.25;;;8.20;99.90;;;;;;5109385;28;20176;-55
2023/12/16 09:20:01;;;;;;;12.90;3.33;;;8.40;99.90;;;;;;5109338;28;20173;-53
2023/12/16 09:22:26;;;;;;;14.73;2.97;;;8.60;99.90;;;;;;5109501;28;20613;-54
2023/12/16 09:24:52;;;;;;;8.90;3.40;;;8.50;99.90;;;;;;5109466;28;20199;-54
2023/12/16 09:27:17;;;;;;;11.45;3.28;;;8.50;99.90;;;;;;5109026;28;20169;-54
2023/12/16 09:29:43;;;;;;;7.90;2.75;;;8.50;99.90;;;;;;5109467;28;20235;-53
2023/12/16 09:32:08;;;;;;;10.20;3.13;;;8.40;99.90;;;;;;5104364;28;20177;-52
2023/12/16 09:34:34;;;;;;;15.93;3.40;;;8.40;99.90;;;;;;5092678;28;20252;-53
2023/12/16 09:36:59;;;;;;;12.05;2.97;;;8.40;99.90;;;;;;5092825;28;20304;-55
2023/12/16 09:39:25;;;;;;;12.90;3.38;;;8.40;99.90;;;;;;5092288;28;20506;-56
2023/12/16 09:41:51;;;;;;;15.98;4.20;;;8.40;99.90;;;;;;5074439;28;20195;-55
2023/12/16 09:44:19;;;;;;;15.02;3.83;;;8.40;99.90;;;;;;5092550;28;20200;-55
2023/12/16 09:46:46;;;;;;;16.65;4.10;;;8.40;99.90;;;;;;5092589;28;20180;-56
2023/12/16 09:49:13;;;;;;;13.60;3.30;;;8.40;99.90;;;;;;5092491;28;20165;-54
2023/12/16 09:51:41;;;;;;;10.45;3.83;;;8.50;99.90;;;;;;5092537;28;20172;-55
2023/12/16 09:54:07;;;;;;;15.10;3.53;;;8.50;99.90;;;;;;5092975;28;20188;-56
2023/12/16 09:56:33;;;;;;;15.95;3.22;;;8.50;99.90;;;;;;5092003;28;20290;-56
2023/12/16 09:58:59;;;;;;;13.10;3.67;;;8.60;99.90;;;;;;5091952;28;20644;-55
2023/12/16 10:01:25;;;;;;;11.88;3.90;;;8.60;99.90;;;;;;5092197;28;20588;-53
2023/12/16 10:03:52;;;;;;;14.13;4.10;;;8.70;99.90;;;;;;5091982;28;20194;-55
2023/12/16 10:06:17;;;;;;;18.17;3.90;;;8.80;99.90;;;;;;5092094;28;20173;-56
2023/12/16 10:08:43;;;;;;;14.68;3.85;;;8.80;99.90;;;;;;5073918;28;20168;-56
2023/12/16 10:11:08;;;;;;;8.38;3.58;;;8.80;99.90;;;;;;5092678;28;20207;-56
2023/12/16 10:13:58;;;;;;;10.38;3.70;;;8.80;99.90;;;;;;5091880;28;20231;-55
2023/12/16 10:16:26;;;;;;;11.48;2.75;;;8.80;99.90;;;;;;5091966;28;20248;-54
2023/12/16 10:18:53;;;;;;;15.10;3.65;;;8.80;99.90;;;;;;5091858;28;20173;-56
2023/12/16 10:21:25;;;;;;;13.77;3.67;;;8.80;99.90;;;;;;5073532;28;20514;-56
2023/12/16 10:23:51;;;;;;;11.90;3.65;;;8.80;99.90;;;;;;5091693;28;20160;-56
2023/12/16 10:26:17;;;;;;;14.45;3.25;;;8.90;99.90;;;;;;5091818;28;20161;-56
2023/12/16 10:28:49;;;;;;;8.18;2.95;;;8.90;99.90;;;;;;5091926;28;20601;-56
2023/12/16 10:31:36;;;;;;;10.02;3.28;;;8.90;99.90;;;;;;5074109;28;20165;-57
2023/12/16 10:34:01;;;;;;;11.43;3.90;;;8.90;99.90;;;;;;5091342;28;20217;-55
2023/12/16 10:36:29;;;;;;;11.27;3.08;;;8.90;99.90;;;;;;5091457;28;20201;-56
2023/12/16 10:38:54;;;;;;;9.57;3.53;;;8.90;99.90;;;;;;5091585;28;20250;-55
2023/12/16 10:41:21;;;;;;;10.52;2.92;;;8.90;99.90;;;;;;5091042;28;20986;-56
2023/12/16 10:43:47;;;;;;;14.52;3.55;;;9.10;99.90;;;;;;5090956;28;20169;-56
2023/12/16 10:46:16;;;;;;;9.80;3.53;;;9.10;99.90;;;;;;5091284;28;20173;-56
2023/12/16 10:48:45;;;;;;;12.43;3.25;;;9.20;99.90;;;;;;5091298;28;20265;-56
2023/12/16 10:51:14;;;;;;;14.38;3.17;;;9.30;99.90;;;;;;5091240;28;20172;-53
2023/12/16 10:53:48;;;;;;;14.50;2.90;;;9.40;99.90;;;;;;5091404;28;20231;-56
2023/12/16 10:56:21;;;;;;;14.00;3.13;;;9.50;99.90;;;;;;5091133;28;20206;-53
2023/12/16 10:59:02;;;;;;;10.00;2.58;;;9.60;99.90;;;;;;5091109;28;20176;-56
2023/12/16 11:01:32;;;;;;;12.82;2.90;;;9.70;99.90;;;;;;5091378;28;20592;-54
2023/12/16 11:04:08;;;;;;;14.65;3.08;;;9.70;99.90;;;;;;5090933;28;20521;-56
2023/12/16 11:06:42;;;;;;;15.55;3.65;;;9.70;99.90;;;;;;5090662;28;20157;-56
2023/12/16 11:09:10;;;;;;;13.00;3.83;;;9.80;99.90;;;;;;5090861;28;20739;-56
2023/12/16 11:11:37;;;;;;;15.68;4.38;;;9.80;99.90;;;;;;5090839;28;20173;-55
2023/12/16 11:14:03;;;;;;;12.55;3.08;;;9.80;99.90;;;;;;5090393;28;20625;-56
2023/12/16 11:16:57;;;;;;;10.43;3.47;;;9.90;99.90;;;;;;5090319;28;20254;-53
2023/12/16 11:19:28;;;;;;;10.32;2.97;;;9.90;99.90;;;;;;5060519;28;20200;-54
2023/12/16 11:21:54;;;;;;;12.40;4.15;;;9.90;99.90;;;;;;5090172;28;20169;-53
2023/12/16 11:24:19;;;;;;;10.82;3.30;;;10.00;99.90;;;;;;5090127;28;20165;-52
2023/12/16 11:26:53;;;;;;;12.57;3.00;;;10.10;99.90;;;;;;5090153;28;20157;-53
2023/12/16 11:29:22;;;;;;;9.85;3.05;;;10.20;99.90;;;;;;5090030;28;20254;-53
2023/12/16 11:31:56;;;;;;;12.07;2.65;;;10.30;99.90;;;;;;5090354;28;20172;-53
2023/12/16 11:34:41;;;;;;;12.27;3.35;;;10.30;99.90;;;;;;5089914;28;20189;-53
2023/12/16 11:37:06;;;;;;;14.15;3.28;;;10.40;99.90;;;;;;5090342;28;20213;-53
2023/12/16 11:39:40;;;;;;;5.82;2.47;;;10.30;99.90;;;;;;5089898;28;20176;-53
2023/12/16 11:42:08;;;;;;;12.27;3.88;;;10.20;99.90;;;;;;5090403;28;20195;-54
2023/12/16 11:44:51;;;;;;;14.80;2.80;;;10.20;99.90;;;;;;5090162;28;20165;-55
2023/12/16 11:47:24;;;;;;;6.85;2.63;;;10.10;99.90;;;;;;5089858;28;20197;-53
2023/12/16 11:49:54;;;;;;;11.00;3.20;;;10.20;99.90;;;;;;5090043;28;20165;-54
2023/12/16 11:52:22;;;;;;;15.10;2.80;;;10.10;99.90;;;;;;5089262;28;20697;-53
2023/12/16 11:54:55;;;;;;;11.55;2.60;;;10.20;99.90;;;;;;5089679;28;20740;-56
2023/12/16 11:57:26;;;;;;;12.93;2.95;;;10.10;99.90;;;;;;5089912;28;20717;-54
2023/12/16 11:59:52;;;;;;;9.82;2.45;;;10.10;99.90;;;;;;5089754;28;20173;-56
2023/12/16 12:02:19;;;;;;;9.43;2.33;;;10.10;99.90;;;;;;5100077;28;20571;-53
2023/12/16 12:04:46;;;;;;;13.10;2.75;;;10.10;99.90;;;;;;5109810;28;20168;-54
2023/12/16 12:07:13;;;;;;;15.23;2.53;;;10.20;99.90;;;;;;5109268;28;20635;-54
2023/12/16 12:09:43;;;;;;;13.52;3.10;;;10.20;99.90;;;;;;5110253;28;20172;-53
2023/12/16 12:12:09;;;;;;;9.35;2.85;;;10.10;99.90;;;;;;5110491;28;20165;-53
2023/12/16 12:14:46;;;;;;;15.15;4.00;;;10.20;99.90;;;;;;5109949;28;20176;-53
2023/12/16 12:17:13;;;;;;;90.88;57.55;;;10.20;99.90;;;;;;5109693;28;20721;-53
2023/12/16 12:19:42;;;;;;;15.98;3.60;;;10.20;99.90;;;;;;5110216;28;20501;-53
2023/12/16 12:22:07;;;;;;;8.90;3.05;;;10.30;99.90;;;;;;5110495;28;20553;-53
2023/12/16 12:24:33;;;;;;;11.52;3.28;;;10.20;99.90;;;;;;5109757;28;20161;-55
2023/12/16 12:26:59;;;;;;;12.30;2.95;;;10.20;99.90;;;;;;5109767;28;20570;-53
2023/12/16 12:29:25;;;;;;;19.45;6.90;;;10.20;99.90;;;;;;5091426;28;20624;-52
2023/12/16 12:31:52;;;;;;;14.65;4.22;;;10.30;99.90;;;;;;5109007;28;20305;-53
2023/12/16 12:34:21;;;;;;;17.33;4.97;;;10.30;99.90;;;;;;5109796;28;20198;-53
2023/12/16 12:36:54;;;;;;;13.55;4.32;;;10.30;99.90;;;;;;5109841;28;20250;-53
2023/12/16 12:39:20;;;;;;;16.80;3.13;;;10.20;99.90;;;;;;5109250;28;20169;-52
2023/12/16 12:42:00;;;;;;;11.55;3.05;;;10.20;99.90;;;;;;5109562;28;20196;-51